sensor_id;sensor_type;location;lat;lon;timestamp;temperature;humidity
18733;DHT22;9495;51.210;2.934;2023-05-07T00:01:45;16.00;99.90
18733;DHT22;9495;51.210;2.934;2023-05-07T00:04:15;16.00;99.90
18733;DHT22;9495;51.210;2.934;2023-05-07T00:06:43;16.00;99.90
18733;DHT22;9495;51.210;2.934;2023-05-07T00:09:12;16.00;99.90
18733;DHT22;9495;51.210;2.934;2023-05-07T00:11:40;16.00;99.90
18733;DHT22;9495;51.210;2.934;2023-05-07T00:14:09;16.00;99.90
18733;DHT22;9495;51.210;2.934;2023-05-07T00:16:37;16.00;99.90
18733;DHT22;9495;51.210;2.934;2023-05-07T00:19:06;16.00;99.90
18733;DHT22;9495;51.210;2.934;2023-05-07T00:21:36;15.90;99.90
18733;DHT22;9495;51.210;2.934;2023-05-07T00:24:05;15.90;99.90
18733;DHT22;9495;51.210;2.934;2023-05-07T00:26:33;15.90;99.90
18733;DHT22;9495;51.210;2.934;2023-05-07T00:29:01;16.00;99.90
18733;DHT22;9495;51.210;2.934;2023-05-07T00:31:30;15.90;99.90
18733;DHT22;9495;51.210;2.934;2023-05-07T00:33:58;15.80;99.90
18733;DHT22;9495;51.210;2.934;2023-05-07T00:36:27;15.80;99.90
18733;DHT22;9495;51.210;2.934;2023-05-07T00:38:59;15.90;99.90
18733;DHT22;9495;51.210;2.934;2023-05-07T00:41:29;15.80;99.90
18733;DHT22;9495;51.210;2.934;2023-05-07T00:43:57;15.80;99.90
18733;DHT22;9495;51.210;2.934;2023-05-07T00:46:26;15.80;99.90
18733;DHT22;9495;51.210;2.934;2023-05-07T00:48:54;15.80;99.90
18733;DHT22;9495;51.210;2.934;2023-05-07T00:51:23;15.70;99.90
18733;DHT22;9495;51.210;2.934;2023-05-07T00:53:54;15.70;99.90
18733;DHT22;9495;51.210;2.934;2023-05-07T00:56:24;15.70;99.90
18733;DHT22;9495;51.210;2.934;2023-05-07T00:58:53;15.70;99.90
18733;DHT22;9495;51.210;2.934;2023-05-07T01:01:22;15.70;99.90
18733;DHT22;9495;51.210;2.934;2023-05-07T01:03:50;15.80;99.90
18733;DHT22;9495;51.210;2.934;2023-05-07T01:06:19;15.70;99.90
18733;DHT22;9495;51.210;2.934;2023-05-07T01:08:50;15.70;99.90
18733;DHT22;9495;51.210;2.934;2023-05-07T01:11:20;15.70;99.90
18733;DHT22;9495;51.210;2.934;2023-05-07T01:13:51;15.70;99.90
18733;DHT22;9495;51.210;2.934;2023-05-07T01:16:19;15.60;99.90
18733;DHT22;9495;51.210;2.934;2023-05-07T01:18:48;15.70;99.90
18733;DHT22;9495;51.210;2.934;2023-05-07T01:21:18;15.70;99.90
18733;DHT22;9495;51.210;2.934;2023-05-07T01:23:48;15.70;99.90
18733;DHT22;9495;51.210;2.934;2023-05-07T01:26:17;15.60;99.90
18733;DHT22;9495;51.210;2.934;2023-05-07T01:28:46;15.70;99.90
18733;DHT22;9495;51.210;2.934;2023-05-07T01:31:16;15.60;99.90
18733;DHT22;9495;51.210;2.934;2023-05-07T01:33:46;15.60;99.90
18733;DHT22;9495;51.210;2.934;2023-05-07T01:36:17;15.60;99.90
18733;DHT22;9495;51.210;2.934;2023-05-07T01:38:48;15.60;99.90
18733;DHT22;9495;51.210;2.934;2023-05-07T01:41:17;15.50;99.90
18733;DHT22;9495;51.210;2.934;2023-05-07T01:43:46;15.50;99.90
18733;DHT22;9495;51.210;2.934;2023-05-07T01:46:15;15.60;99.90
18733;DHT22;9495;51.210;2.934;2023-05-07T01:48:45;15.60;99.90
18733;DHT22;9495;51.210;2.934;2023-05-07T01:51:14;15.60;99.90
18733;DHT22;9495;51.210;2.934;2023-05-07T01:53:42;15.60;99.90
18733;DHT22;9495;51.210;2.934;2023-05-07T01:56:14;15.50;99.90
18733;DHT22;9495;51.210;2.934;2023-05-07T01:58:42;15.50;99.90
18733;DHT22;9495;51.210;2.934;2023-05-07T02:01:11;15.50;99.90
18733;DHT22;9495;51.210;2.934;2023-05-07T02:03:40;15.50;99.90
18733;DHT22;9495;51.210;2.934;2023-05-07T02:06:09;15.50;99.90
18733;DHT22;9495;51.210;2.934;2023-05-07T02:08:37;15.50;99.90
18733;DHT22;9495;51.210;2.934;2023-05-07T02:11:06;15.50;99.90
18733;DHT22;9495;51.210;2.934;2023-05-07T02:13:36;15.50;99.90
18733;DHT22;9495;51.210;2.934;2023-05-07T02:16:05;15.40;99.90
18733;DHT22;9495;51.210;2.934;2023-05-07T02:18:34;15.40;99.90
18733;DHT22;9495;51.210;2.934;2023-05-07T02:21:03;15.40;99.90
18733;DHT22;9495;51.210;2.934;2023-05-07T02:23:32;15.40;99.90
18733;DHT22;9495;51.210;2.934;2023-05-07T02:26:00;15.40;99.90
18733;DHT22;9495;51.210;2.934;2023-05-07T02:28:29;15.30;99.90
18733;DHT22;9495;51.210;2.934;2023-05-07T02:30:58;15.40;99.90
18733;DHT22;9495;51.210;2.934;2023-05-07T02:33:27;15.40;99.90
18733;DHT22;9495;51.210;2.934;2023-05-07T02:35:56;15.40;99.90
18733;DHT22;9495;51.210;2.934;2023-05-07T02:38:24;15.40;99.90
18733;DHT22;9495;51.210;2.934;2023-05-07T02:40:53;15.40;99.90
18733;DHT22;9495;51.210;2.934;2023-05-07T02:43:21;15.40;99.90
18733;DHT22;9495;51.210;2.934;2023-05-07T02:46:01;15.40;99.90
18733;DHT22;9495;51.210;2.934;2023-05-07T02:48:31;15.40;99.90
18733;DHT22;9495;51.210;2.934;2023-05-07T02:51:00;15.30;99.90
18733;DHT22;9495;51.210;2.934;2023-05-07T02:53:28;15.40;99.90
18733;DHT22;9495;51.210;2.934;2023-05-07T02:55:57;15.30;99.90
18733;DHT22;9495;51.210;2.934;2023-05-07T02:58:27;15.30;99.90
18733;DHT22;9495;51.210;2.934;2023-05-07T03:00:55;15.30;99.90
18733;DHT22;9495;51.210;2.934;2023-05-07T03:03:25;15.30;99.90
18733;DHT22;9495;51.210;2.934;2023-05-07T03:05:54;15.30;99.90
18733;DHT22;9495;51.210;2.934;2023-05-07T03:08:22;15.30;99.90
18733;DHT22;9495;51.210;2.934;2023-05-07T03:10:51;15.20;99.90
18733;DHT22;9495;51.210;2.934;2023-05-07T03:13:20;15.30;99.90
18733;DHT22;9495;51.210;2.934;2023-05-07T03:15:48;15.30;99.90
18733;DHT22;9495;51.210;2.934;2023-05-07T03:18:17;15.30;99.90
18733;DHT22;9495;51.210;2.934;2023-05-07T03:20:48;15.30;99.90
18733;DHT22;9495;51.210;2.934;2023-05-07T03:23:17;15.40;99.90
18733;DHT22;9495;51.210;2.934;2023-05-07T03:25:45;15.30;99.90
18733;DHT22;9495;51.210;2.934;2023-05-07T03:28:13;15.30;99.90
18733;DHT22;9495;51.210;2.934;2023-05-07T03:30:42;15.30;99.90
18733;DHT22;9495;51.210;2.934;2023-05-07T03:33:10;15.30;99.90
18733;DHT22;9495;51.210;2.934;2023-05-07T03:35:39;15.30;99.90
18733;DHT22;9495;51.210;2.934;2023-05-07T03:38:09;15.30;99.90
18733;DHT22;9495;51.210;2.934;2023-05-07T03:40:37;15.30;99.90
18733;DHT22;9495;51.210;2.934;2023-05-07T03:43:06;15.20;99.90
18733;DHT22;9495;51.210;2.934;2023-05-07T03:45:35;15.20;99.90
18733;DHT22;9495;51.210;2.934;2023-05-07T03:48:04;15.20;99.90
18733;DHT22;9495;51.210;2.934;2023-05-07T03:50:32;15.20;99.90
18733;DHT22;9495;51.210;2.934;2023-05-07T03:53:01;15.20;99.90
18733;DHT22;9495;51.210;2.934;2023-05-07T03:55:30;15.10;99.90
18733;DHT22;9495;51.210;2.934;2023-05-07T03:57:59;15.10;99.90
18733;DHT22;9495;51.210;2.934;2023-05-07T04:00:27;15.10;99.90
18733;DHT22;9495;51.210;2.934;2023-05-07T04:02:56;15.10;99.90
18733;DHT22;9495;51.210;2.934;2023-05-07T04:05:25;15.10;99.90
18733;DHT22;9495;51.210;2.934;2023-05-07T04:07:53;15.10;99.90
18733;DHT22;9495;51.210;2.934;2023-05-07T04:10:22;15.10;99.90
18733;DHT22;9495;51.210;2.934;2023-05-07T04:12:51;15.10;99.90
18733;DHT22;9495;51.210;2.934;2023-05-07T04:15:20;15.00;99.90
18733;DHT22;9495;51.210;2.934;2023-05-07T04:17:48;15.00;99.90
18733;DHT22;9495;51.210;2.934;2023-05-07T04:20:17;15.00;99.90
18733;DHT22;9495;51.210;2.934;2023-05-07T04:22:45;15.00;99.90
18733;DHT22;9495;51.210;2.934;2023-05-07T04:25:15;15.00;99.90
18733;DHT22;9495;51.210;2.934;2023-05-07T04:27:44;15.00;99.90
18733;DHT22;9495;51.210;2.934;2023-05-07T04:30:14;15.10;99.90
18733;DHT22;9495;51.210;2.934;2023-05-07T04:32:43;15.10;99.90
18733;DHT22;9495;51.210;2.934;2023-05-07T04:35:12;15.10;99.90
18733;DHT22;9495;51.210;2.934;2023-05-07T04:37:40;15.10;99.90
18733;DHT22;9495;51.210;2.934;2023-05-07T04:40:09;15.10;99.90
18733;DHT22;9495;51.210;2.934;2023-05-07T04:42:38;15.10;99.90
18733;DHT22;9495;51.210;2.934;2023-05-07T04:45:07;15.10;99.90
18733;DHT22;9495;51.210;2.934;2023-05-07T04:47:38;15.10;99.90
18733;DHT22;9495;51.210;2.934;2023-05-07T04:50:07;15.10;99.90
18733;DHT22;9495;51.210;2.934;2023-05-07T04:52:36;15.20;99.90
18733;DHT22;9495;51.210;2.934;2023-05-07T04:55:05;15.20;99.90
18733;DHT22;9495;51.210;2.934;2023-05-07T04:57:34;15.20;99.90
18733;DHT22;9495;51.210;2.934;2023-05-07T05:00:03;15.20;99.90
18733;DHT22;9495;51.210;2.934;2023-05-07T05:02:32;15.20;99.90
18733;DHT22;9495;51.210;2.934;2023-05-07T05:05:03;15.20;99.90
18733;DHT22;9495;51.210;2.934;2023-05-07T05:07:31;15.20;99.90
18733;DHT22;9495;51.210;2.934;2023-05-07T05:10:00;15.30;99.90
18733;DHT22;9495;51.210;2.934;2023-05-07T05:12:29;15.40;99.90
18733;DHT22;9495;51.210;2.934;2023-05-07T05:14:58;15.30;99.90
18733;DHT22;9495;51.210;2.934;2023-05-07T05:17:26;15.40;99.90
18733;DHT22;9495;51.210;2.934;2023-05-07T05:19:55;15.40;99.90
18733;DHT22;9495;51.210;2.934;2023-05-07T05:22:25;15.40;99.90
18733;DHT22;9495;51.210;2.934;2023-05-07T05:24:53;15.40;99.90
18733;DHT22;9495;51.210;2.934;2023-05-07T05:27:22;15.40;99.90
18733;DHT22;9495;51.210;2.934;2023-05-07T05:29:50;15.50;99.90
18733;DHT22;9495;51.210;2.934;2023-05-07T05:32:19;15.50;99.90
18733;DHT22;9495;51.210;2.934;2023-05-07T05:34:48;15.50;99.90
18733;DHT22;9495;51.210;2.934;2023-05-07T05:37:16;15.50;99.90
18733;DHT22;9495;51.210;2.934;2023-05-07T05:39:46;15.50;99.90
18733;DHT22;9495;51.210;2.934;2023-05-07T05:42:15;15.50;99.90
18733;DHT22;9495;51.210;2.934;2023-05-07T05:44:43;15.60;99.90
18733;DHT22;9495;51.210;2.934;2023-05-07T05:47:12;15.60;99.90
18733;DHT22;9495;51.210;2.934;2023-05-07T05:49:40;15.60;99.90
18733;DHT22;9495;51.210;2.934;2023-05-07T05:52:11;15.70;99.90
18733;DHT22;9495;51.210;2.934;2023-05-07T05:54:40;15.70;99.90
18733;DHT22;9495;51.210;2.934;2023-05-07T05:57:10;15.70;99.90
18733;DHT22;9495;51.210;2.934;2023-05-07T05:59:38;15.70;99.90
18733;DHT22;9495;51.210;2.934;2023-05-07T06:02:07;15.70;99.90
18733;DHT22;9495;51.210;2.934;2023-05-07T06:04:36;15.80;99.90
18733;DHT22;9495;51.210;2.934;2023-05-07T06:07:04;15.70;99.90
18733;DHT22;9495;51.210;2.934;2023-05-07T06:09:33;15.80;99.90
18733;DHT22;9495;51.210;2.934;2023-05-07T06:12:01;15.80;99.90
18733;DHT22;9495;51.210;2.934;2023-05-07T06:14:31;15.80;99.90
18733;DHT22;9495;51.210;2.934;2023-05-07T06:16:59;15.90;99.90
18733;DHT22;9495;51.210;2.934;2023-05-07T06:19:28;15.90;99.90
18733;DHT22;9495;51.210;2.934;2023-05-07T06:21:56;15.90;99.90
18733;DHT22;9495;51.210;2.934;2023-05-07T06:24:25;15.90;99.90
18733;DHT22;9495;51.210;2.934;2023-05-07T06:26:53;16.00;99.90
18733;DHT22;9495;51.210;2.934;2023-05-07T06:29:22;16.00;99.90
18733;DHT22;9495;51.210;2.934;2023-05-07T06:31:54;16.00;99.90
18733;DHT22;9495;51.210;2.934;2023-05-07T06:34:22;16.00;99.90
18733;DHT22;9495;51.210;2.934;2023-05-07T06:36:51;16.00;99.90
18733;DHT22;9495;51.210;2.934;2023-05-07T06:39:19;16.00;99.90
18733;DHT22;9495;51.210;2.934;2023-05-07T06:41:48;16.00;99.90
18733;DHT22;9495;51.210;2.934;2023-05-07T06:44:17;16.10;99.90
18733;DHT22;9495;51.210;2.934;2023-05-07T06:46:45;16.10;99.90
18733;DHT22;9495;51.210;2.934;2023-05-07T06:49:15;16.10;99.90
18733;DHT22;9495;51.210;2.934;2023-05-07T06:51:44;16.20;99.90
18733;DHT22;9495;51.210;2.934;2023-05-07T06:54:12;16.10;99.90
18733;DHT22;9495;51.210;2.934;2023-05-07T06:56:40;16.10;99.90
18733;DHT22;9495;51.210;2.934;2023-05-07T06:59:09;16.10;99.90
18733;DHT22;9495;51.210;2.934;2023-05-07T07:01:38;16.10;99.90
18733;DHT22;9495;51.210;2.934;2023-05-07T07:04:06;16.10;99.90
18733;DHT22;9495;51.210;2.934;2023-05-07T07:06:36;16.20;99.90
18733;DHT22;9495;51.210;2.934;2023-05-07T07:09:05;16.20;99.90
18733;DHT22;9495;51.210;2.934;2023-05-07T07:11:33;16.20;99.90
18733;DHT22;9495;51.210;2.934;2023-05-07T07:14:01;16.30;99.90
18733;DHT22;9495;51.210;2.934;2023-05-07T07:16:31;16.20;99.90
18733;DHT22;9495;51.210;2.934;2023-05-07T07:19:00;16.20;99.90
18733;DHT22;9495;51.210;2.934;2023-05-07T07:21:29;16.30;99.90
18733;DHT22;9495;51.210;2.934;2023-05-07T07:24:00;16.40;99.90
18733;DHT22;9495;51.210;2.934;2023-05-07T07:26:29;16.40;99.90
18733;DHT22;9495;51.210;2.934;2023-05-07T07:28:58;16.40;99.90
18733;DHT22;9495;51.210;2.934;2023-05-07T07:31:26;16.60;99.90
18733;DHT22;9495;51.210;2.934;2023-05-07T07:33:55;16.60;99.90
18733;DHT22;9495;51.210;2.934;2023-05-07T07:36:23;16.70;99.90
18733;DHT22;9495;51.210;2.934;2023-05-07T07:39:13;16.70;99.90
18733;DHT22;9495;51.210;2.934;2023-05-07T07:41:41;16.80;99.90
18733;DHT22;9495;51.210;2.934;2023-05-07T07:44:10;16.80;99.90
18733;DHT22;9495;51.210;2.934;2023-05-07T07:46:42;16.80;99.90
18733;DHT22;9495;51.210;2.934;2023-05-07T07:49:11;16.90;99.90
18733;DHT22;9495;51.210;2.934;2023-05-07T07:51:39;17.50;99.90
18733;DHT22;9495;51.210;2.934;2023-05-07T07:54:07;17.90;99.90
18733;DHT22;9495;51.210;2.934;2023-05-07T07:56:37;18.20;99.90
18733;DHT22;9495;51.210;2.934;2023-05-07T07:59:06;18.60;99.90
18733;DHT22;9495;51.210;2.934;2023-05-07T08:01:34;18.50;99.90
18733;DHT22;9495;51.210;2.934;2023-05-07T08:04:03;18.20;99.90
18733;DHT22;9495;51.210;2.934;2023-05-07T08:06:33;17.90;99.90
18733;DHT22;9495;51.210;2.934;2023-05-07T08:09:01;17.70;99.90
18733;DHT22;9495;51.210;2.934;2023-05-07T08:11:30;17.60;99.90
18733;DHT22;9495;51.210;2.934;2023-05-07T08:14:00;17.50;99.90
18733;DHT22;9495;51.210;2.934;2023-05-07T08:16:29;17.50;99.90
18733;DHT22;9495;51.210;2.934;2023-05-07T08:18:57;17.50;99.90
18733;DHT22;9495;51.210;2.934;2023-05-07T08:21:26;17.50;99.90
18733;DHT22;9495;51.210;2.934;2023-05-07T08:23:55;17.50;99.90
18733;DHT22;9495;51.210;2.934;2023-05-07T08:26:23;17.50;99.90
18733;DHT22;9495;51.210;2.934;2023-05-07T08:28:52;17.50;99.90
18733;DHT22;9495;51.210;2.934;2023-05-07T08:31:21;17.50;99.90
18733;DHT22;9495;51.210;2.934;2023-05-07T08:33:50;17.50;99.90
18733;DHT22;9495;51.210;2.934;2023-05-07T08:36:18;17.60;99.90
18733;DHT22;9495;51.210;2.934;2023-05-07T08:38:47;17.60;99.90
18733;DHT22;9495;51.210;2.934;2023-05-07T08:41:16;17.80;99.90
18733;DHT22;9495;51.210;2.934;2023-05-07T08:43:47;17.80;99.90
18733;DHT22;9495;51.210;2.934;2023-05-07T08:46:18;17.80;99.90
18733;DHT22;9495;51.210;2.934;2023-05-07T08:48:50;17.70;99.90
18733;DHT22;9495;51.210;2.934;2023-05-07T08:51:20;17.70;99.90
18733;DHT22;9495;51.210;2.934;2023-05-07T08:53:49;17.80;99.90
18733;DHT22;9495;51.210;2.934;2023-05-07T08:56:18;18.10;99.90
18733;DHT22;9495;51.210;2.934;2023-05-07T08:58:48;18.20;99.90
18733;DHT22;9495;51.210;2.934;2023-05-07T09:01:17;18.10;99.90
18733;DHT22;9495;51.210;2.934;2023-05-07T09:03:46;18.10;99.90
18733;DHT22;9495;51.210;2.934;2023-05-07T09:06:16;18.10;99.90
18733;DHT22;9495;51.210;2.934;2023-05-07T09:08:49;18.10;99.90
18733;DHT22;9495;51.210;2.934;2023-05-07T09:11:20;18.10;99.90
18733;DHT22;9495;51.210;2.934;2023-05-07T09:13:53;18.30;99.90
18733;DHT22;9495;51.210;2.934;2023-05-07T09:16:23;18.20;99.90
18733;DHT22;9495;51.210;2.934;2023-05-07T09:18:52;18.20;99.90
18733;DHT22;9495;51.210;2.934;2023-05-07T09:21:23;18.20;99.90
18733;DHT22;9495;51.210;2.934;2023-05-07T09:23:52;18.30;99.90
18733;DHT22;9495;51.210;2.934;2023-05-07T09:26:21;18.40;99.90
18733;DHT22;9495;51.210;2.934;2023-05-07T09:28:49;18.20;99.90
18733;DHT22;9495;51.210;2.934;2023-05-07T09:31:18;18.20;99.90
18733;DHT22;9495;51.210;2.934;2023-05-07T09:33:47;18.60;99.90
18733;DHT22;9495;51.210;2.934;2023-05-07T09:36:16;18.80;99.90
18733;DHT22;9495;51.210;2.934;2023-05-07T09:38:46;18.80;99.90
18733;DHT22;9495;51.210;2.934;2023-05-07T09:41:15;18.70;99.90
18733;DHT22;9495;51.210;2.934;2023-05-07T09:43:43;18.80;99.90
18733;DHT22;9495;51.210;2.934;2023-05-07T09:46:13;18.80;99.90
18733;DHT22;9495;51.210;2.934;2023-05-07T09:48:42;18.70;99.90
18733;DHT22;9495;51.210;2.934;2023-05-07T09:51:18;18.50;99.90
18733;DHT22;9495;51.210;2.934;2023-05-07T09:53:52;18.50;99.90
18733;DHT22;9495;51.210;2.934;2023-05-07T09:56:21;18.80;99.90
18733;DHT22;9495;51.210;2.934;2023-05-07T09:58:53;19.00;99.90
18733;DHT22;9495;51.210;2.934;2023-05-07T10:01:23;18.80;99.90
18733;DHT22;9495;51.210;2.934;2023-05-07T10:03:52;18.70;99.90
18733;DHT22;9495;51.210;2.934;2023-05-07T10:06:23;18.60;99.90
18733;DHT22;9495;51.210;2.934;2023-05-07T10:08:54;18.70;99.90
18733;DHT22;9495;51.210;2.934;2023-05-07T10:11:23;18.80;99.90
18733;DHT22;9495;51.210;2.934;2023-05-07T10:13:52;18.70;99.90
18733;DHT22;9495;51.210;2.934;2023-05-07T10:16:21;18.70;99.90
18733;DHT22;9495;51.210;2.934;2023-05-07T10:18:51;18.80;99.90
18733;DHT22;9495;51.210;2.934;2023-05-07T10:21:21;18.90;99.90
18733;DHT22;9495;51.210;2.934;2023-05-07T10:23:53;19.10;99.90
18733;DHT22;9495;51.210;2.934;2023-05-07T10:26:25;19.10;99.90
18733;DHT22;9495;51.210;2.934;2023-05-07T10:28:59;19.30;99.90
18733;DHT22;9495;51.210;2.934;2023-05-07T10:31:46;19.10;99.90
18733;DHT22;9495;51.210;2.934;2023-05-07T10:34:19;19.10;99.90
18733;DHT22;9495;51.210;2.934;2023-05-07T10:36:50;19.00;99.90
18733;DHT22;9495;51.210;2.934;2023-05-07T10:39:21;18.90;99.90
18733;DHT22;9495;51.210;2.934;2023-05-07T10:41:50;18.90;99.90
18733;DHT22;9495;51.210;2.934;2023-05-07T10:44:25;19.00;99.90
18733;DHT22;9495;51.210;2.934;2023-05-07T10:47:07;19.20;99.90
18733;DHT22;9495;51.210;2.934;2023-05-07T10:49:38;18.80;99.90
18733;DHT22;9495;51.210;2.934;2023-05-07T10:52:25;18.50;99.90
18733;DHT22;9495;51.210;2.934;2023-05-07T10:55:22;17.70;99.90
18733;DHT22;9495;51.210;2.934;2023-05-07T10:57:52;17.40;99.90
18733;DHT22;9495;51.210;2.934;2023-05-07T11:00:42;17.70;99.90
18733;DHT22;9495;51.210;2.934;2023-05-07T11:03:14;18.00;99.90
18733;DHT22;9495;51.210;2.934;2023-05-07T11:05:43;18.10;99.90
18733;DHT22;9495;51.210;2.934;2023-05-07T11:08:12;18.20;99.90
18733;DHT22;9495;51.210;2.934;2023-05-07T11:10:55;18.10;99.90
18733;DHT22;9495;51.210;2.934;2023-05-07T11:13:43;17.90;99.90
18733;DHT22;9495;51.210;2.934;2023-05-07T11:16:18;18.10;99.90
18733;DHT22;9495;51.210;2.934;2023-05-07T11:18:47;18.30;99.90
18733;DHT22;9495;51.210;2.934;2023-05-07T11:21:32;18.30;99.90
18733;DHT22;9495;51.210;2.934;2023-05-07T11:24:01;18.50;99.90
18733;DHT22;9495;51.210;2.934;2023-05-07T11:26:42;18.50;99.90
18733;DHT22;9495;51.210;2.934;2023-05-07T11:29:12;18.70;99.90
18733;DHT22;9495;51.210;2.934;2023-05-07T11:31:41;18.70;99.90
18733;DHT22;9495;51.210;2.934;2023-05-07T11:34:10;18.80;99.90
18733;DHT22;9495;51.210;2.934;2023-05-07T11:36:42;18.90;99.90
18733;DHT22;9495;51.210;2.934;2023-05-07T11:39:24;18.80;99.90
18733;DHT22;9495;51.210;2.934;2023-05-07T11:41:54;19.00;99.90
18733;DHT22;9495;51.210;2.934;2023-05-07T11:44:23;18.90;99.90
18733;DHT22;9495;51.210;2.934;2023-05-07T11:46:51;19.10;99.90
18733;DHT22;9495;51.210;2.934;2023-05-07T11:49:20;19.10;99.90
18733;DHT22;9495;51.210;2.934;2023-05-07T11:51:48;19.20;99.90
18733;DHT22;9495;51.210;2.934;2023-05-07T11:54:17;19.20;99.90
18733;DHT22;9495;51.210;2.934;2023-05-07T11:56:45;19.30;99.90
18733;DHT22;9495;51.210;2.934;2023-05-07T11:59:18;19.40;99.90
18733;DHT22;9495;51.210;2.934;2023-05-07T12:01:47;19.40;99.90
18733;DHT22;9495;51.210;2.934;2023-05-07T12:04:19;19.40;99.90
18733;DHT22;9495;51.210;2.934;2023-05-07T12:06:53;19.40;99.90
18733;DHT22;9495;51.210;2.934;2023-05-07T12:09:23;19.40;99.90
18733;DHT22;9495;51.210;2.934;2023-05-07T12:11:52;19.50;99.90
18733;DHT22;9495;51.210;2.934;2023-05-07T12:14:27;19.60;99.90
18733;DHT22;9495;51.210;2.934;2023-05-07T12:16:56;19.60;99.90
18733;DHT22;9495;51.210;2.934;2023-05-07T12:19:25;19.60;99.90
18733;DHT22;9495;51.210;2.934;2023-05-07T12:21:53;19.70;99.90
18733;DHT22;9495;51.210;2.934;2023-05-07T12:24:23;19.70;99.90
18733;DHT22;9495;51.210;2.934;2023-05-07T12:26:52;19.70;99.90
18733;DHT22;9495;51.210;2.934;2023-05-07T12:29:21;19.90;99.90
18733;DHT22;9495;51.210;2.934;2023-05-07T12:31:52;19.80;99.90
18733;DHT22;9495;51.210;2.934;2023-05-07T12:34:20;19.90;99.90
18733;DHT22;9495;51.210;2.934;2023-05-07T12:36:50;19.90;99.90
18733;DHT22;9495;51.210;2.934;2023-05-07T12:39:18;19.80;99.90
18733;DHT22;9495;51.210;2.934;2023-05-07T12:41:54;19.80;99.90
18733;DHT22;9495;51.210;2.934;2023-05-07T12:44:23;19.50;99.90
18733;DHT22;9495;51.210;2.934;2023-05-07T12:46:53;19.50;99.90
18733;DHT22;9495;51.210;2.934;2023-05-07T12:49:22;19.30;99.90
18733;DHT22;9495;51.210;2.934;2023-05-07T12:51:52;19.10;99.90
18733;DHT22;9495;51.210;2.934;2023-05-07T12:54:30;19.20;99.90
18733;DHT22;9495;51.210;2.934;2023-05-07T12:57:02;19.30;99.90
18733;DHT22;9495;51.210;2.934;2023-05-07T12:59:32;19.40;99.90
18733;DHT22;9495;51.210;2.934;2023-05-07T13:02:02;19.40;99.90
18733;DHT22;9495;51.210;2.934;2023-05-07T13:04:31;19.30;99.90
18733;DHT22;9495;51.210;2.934;2023-05-07T13:07:00;19.10;99.90
18733;DHT22;9495;51.210;2.934;2023-05-07T13:09:28;19.20;99.90
18733;DHT22;9495;51.210;2.934;2023-05-07T13:11:57;19.20;99.90
18733;DHT22;9495;51.210;2.934;2023-05-07T13:14:28;19.10;99.90
18733;DHT22;9495;51.210;2.934;2023-05-07T13:16:57;19.10;99.90
18733;DHT22;9495;51.210;2.934;2023-05-07T13:19:26;19.10;99.90
18733;DHT22;9495;51.210;2.934;2023-05-07T13:21:57;19.20;99.90
18733;DHT22;9495;51.210;2.934;2023-05-07T13:24:26;19.10;99.90
18733;DHT22;9495;51.210;2.934;2023-05-07T13:26:54;19.00;99.90
18733;DHT22;9495;51.210;2.934;2023-05-07T13:29:22;18.50;99.90
18733;DHT22;9495;51.210;2.934;2023-05-07T13:31:56;18.30;99.90
18733;DHT22;9495;51.210;2.934;2023-05-07T13:34:26;18.20;99.90
18733;DHT22;9495;51.210;2.934;2023-05-07T13:36:54;18.50;99.90
18733;DHT22;9495;51.210;2.934;2023-05-07T13:39:23;18.20;99.90
18733;DHT22;9495;51.210;2.934;2023-05-07T13:41:51;18.40;99.90
18733;DHT22;9495;51.210;2.934;2023-05-07T13:44:20;18.40;99.90
18733;DHT22;9495;51.210;2.934;2023-05-07T13:46:48;18.50;99.90
18733;DHT22;9495;51.210;2.934;2023-05-07T13:49:17;18.60;99.90
18733;DHT22;9495;51.210;2.934;2023-05-07T13:51:47;18.40;99.90
18733;DHT22;9495;51.210;2.934;2023-05-07T13:54:15;18.20;99.90
18733;DHT22;9495;51.210;2.934;2023-05-07T13:56:44;18.10;99.90
18733;DHT22;9495;51.210;2.934;2023-05-07T13:59:12;18.20;99.90
18733;DHT22;9495;51.210;2.934;2023-05-07T14:01:42;17.90;99.90
18733;DHT22;9495;51.210;2.934;2023-05-07T14:04:10;18.00;99.90
18733;DHT22;9495;51.210;2.934;2023-05-07T14:06:39;17.90;99.90
18733;DHT22;9495;51.210;2.934;2023-05-07T14:09:09;18.20;99.90
18733;DHT22;9495;51.210;2.934;2023-05-07T14:11:40;18.20;99.90
18733;DHT22;9495;51.210;2.934;2023-05-07T14:14:08;18.50;99.90
18733;DHT22;9495;51.210;2.934;2023-05-07T14:16:38;18.70;99.90
18733;DHT22;9495;51.210;2.934;2023-05-07T14:19:07;18.50;99.90
18733;DHT22;9495;51.210;2.934;2023-05-07T14:21:35;18.70;99.90
18733;DHT22;9495;51.210;2.934;2023-05-07T14:24:05;18.80;99.90
18733;DHT22;9495;51.210;2.934;2023-05-07T14:26:35;18.60;99.90
18733;DHT22;9495;51.210;2.934;2023-05-07T14:29:04;18.60;99.90
18733;DHT22;9495;51.210;2.934;2023-05-07T14:31:32;18.60;99.90
18733;DHT22;9495;51.210;2.934;2023-05-07T14:34:01;18.80;99.90
18733;DHT22;9495;51.210;2.934;2023-05-07T14:36:29;18.90;99.90
18733;DHT22;9495;51.210;2.934;2023-05-07T14:38:58;19.10;99.90
18733;DHT22;9495;51.210;2.934;2023-05-07T14:41:27;19.10;99.90
18733;DHT22;9495;51.210;2.934;2023-05-07T14:43:57;18.60;99.90
18733;DHT22;9495;51.210;2.934;2023-05-07T14:46:26;18.90;99.90
18733;DHT22;9495;51.210;2.934;2023-05-07T14:48:54;19.10;99.90
18733;DHT22;9495;51.210;2.934;2023-05-07T14:51:22;19.00;99.90
18733;DHT22;9495;51.210;2.934;2023-05-07T14:53:53;19.00;99.90
18733;DHT22;9495;51.210;2.934;2023-05-07T14:56:21;19.10;99.90
18733;DHT22;9495;51.210;2.934;2023-05-07T14:58:50;18.60;99.90
18733;DHT22;9495;51.210;2.934;2023-05-07T15:01:20;18.70;99.90
18733;DHT22;9495;51.210;2.934;2023-05-07T15:03:49;18.80;99.90
18733;DHT22;9495;51.210;2.934;2023-05-07T15:06:17;19.00;99.90
18733;DHT22;9495;51.210;2.934;2023-05-07T15:08:46;19.10;99.90
18733;DHT22;9495;51.210;2.934;2023-05-07T15:11:15;18.70;99.90
18733;DHT22;9495;51.210;2.934;2023-05-07T15:13:44;18.70;99.90
18733;DHT22;9495;51.210;2.934;2023-05-07T15:16:12;18.40;99.90
18733;DHT22;9495;51.210;2.934;2023-05-07T15:18:42;18.30;99.90
18733;DHT22;9495;51.210;2.934;2023-05-07T15:21:11;18.50;99.90
18733;DHT22;9495;51.210;2.934;2023-05-07T15:23:40;18.70;99.90
18733;DHT22;9495;51.210;2.934;2023-05-07T15:26:10;18.80;99.90
18733;DHT22;9495;51.210;2.934;2023-05-07T15:28:39;18.90;99.90
18733;DHT22;9495;51.210;2.934;2023-05-07T15:31:08;19.00;99.90
18733;DHT22;9495;51.210;2.934;2023-05-07T15:33:36;19.00;99.90
18733;DHT22;9495;51.210;2.934;2023-05-07T15:36:06;18.90;99.90
18733;DHT22;9495;51.210;2.934;2023-05-07T15:38:35;18.80;99.90
18733;DHT22;9495;51.210;2.934;2023-05-07T15:41:03;18.90;99.90
18733;DHT22;9495;51.210;2.934;2023-05-07T15:43:31;18.60;99.90
18733;DHT22;9495;51.210;2.934;2023-05-07T15:46:00;18.60;99.90
18733;DHT22;9495;51.210;2.934;2023-05-07T15:48:29;18.80;99.90
18733;DHT22;9495;51.210;2.934;2023-05-07T15:50:58;18.50;99.90
18733;DHT22;9495;51.210;2.934;2023-05-07T15:53:28;18.60;99.90
18733;DHT22;9495;51.210;2.934;2023-05-07T15:55:57;18.80;99.90
18733;DHT22;9495;51.210;2.934;2023-05-07T15:58:26;18.60;99.90
18733;DHT22;9495;51.210;2.934;2023-05-07T16:00:55;18.80;99.90